sensor_id;sensor_type;location;lat;lon;timestamp;P1;durP1;ratioP1;P2;durP2;ratioP2
3922;SDS011;1976;51.694;6.256;2024-01-15T00:02:16;0.60;;;0.60;;
3922;SDS011;1976;51.694;6.256;2024-01-15T00:04:41;0.60;;;0.60;;
3922;SDS011;1976;51.694;6.256;2024-01-15T00:07:07;0.70;;;0.70;;
3922;SDS011;1976;51.694;6.256;2024-01-15T00:09:33;0.60;;;0.60;;
3922;SDS011;1976;51.694;6.256;2024-01-15T00:11:59;0.60;;;0.60;;
3922;SDS011;1976;51.694;6.256;2024-01-15T00:14:25;0.60;;;0.60;;
3922;SDS011;1976;51.694;6.256;2024-01-15T00:16:51;0.60;;;0.60;;
3922;SDS011;1976;51.694;6.256;2024-01-15T00:19:20;0.60;;;0.60;;
3922;SDS011;1976;51.694;6.256;2024-01-15T00:21:47;0.60;;;0.60;;
3922;SDS011;1976;51.694;6.256;2024-01-15T00:24:12;0.70;;;0.70;;
3922;SDS011;1976;51.694;6.256;2024-01-15T00:26:38;0.60;;;0.60;;
3922;SDS011;1976;51.694;6.256;2024-01-15T00:29:04;0.60;;;0.60;;
3922;SDS011;1976;51.694;6.256;2024-01-15T00:31:32;0.60;;;0.60;;
3922;SDS011;1976;51.694;6.256;2024-01-15T00:33:57;0.60;;;0.60;;
3922;SDS011;1976;51.694;6.256;2024-01-15T00:36:23;0.60;;;0.60;;
3922;SDS011;1976;51.694;6.256;2024-01-15T00:38:48;0.60;;;0.60;;
3922;SDS011;1976;51.694;6.256;2024-01-15T00:41:14;0.70;;;0.70;;
3922;SDS011;1976;51.694;6.256;2024-01-15T00:43:40;0.60;;;0.60;;
3922;SDS011;1976;51.694;6.256;2024-01-15T00:46:06;0.60;;;0.60;;
3922;SDS011;1976;51.694;6.256;2024-01-15T00:48:31;0.60;;;0.60;;
3922;SDS011;1976;51.694;6.256;2024-01-15T00:50:57;0.60;;;0.60;;
3922;SDS011;1976;51.694;6.256;2024-01-15T00:53:23;0.60;;;0.60;;
3922;SDS011;1976;51.694;6.256;2024-01-15T00:55:49;0.63;;;0.63;;
3922;SDS011;1976;51.694;6.256;2024-01-15T00:58:15;0.60;;;0.60;;
3922;SDS011;1976;51.694;6.256;2024-01-15T01:00:41;0.60;;;0.60;;
3922;SDS011;1976;51.694;6.256;2024-01-15T01:03:07;0.70;;;0.70;;
3922;SDS011;1976;51.694;6.256;2024-01-15T01:05:33;0.60;;;0.60;;
3922;SDS011;1976;51.694;6.256;2024-01-15T01:07:59;0.60;;;0.60;;
3922;SDS011;1976;51.694;6.256;2024-01-15T01:10:25;0.60;;;0.60;;
3922;SDS011;1976;51.694;6.256;2024-01-15T01:12:50;0.60;;;0.60;;
3922;SDS011;1976;51.694;6.256;2024-01-15T01:15:16;0.60;;;0.60;;
3922;SDS011;1976;51.694;6.256;2024-01-15T01:17:42;0.63;;;0.63;;
3922;SDS011;1976;51.694;6.256;2024-01-15T01:20:08;0.60;;;0.60;;
3922;SDS011;1976;51.694;6.256;2024-01-15T01:22:34;0.60;;;0.60;;
3922;SDS011;1976;51.694;6.256;2024-01-15T01:25:00;0.60;;;0.60;;
3922;SDS011;1976;51.694;6.256;2024-01-15T01:27:26;0.60;;;0.60;;
3922;SDS011;1976;51.694;6.256;2024-01-15T01:29:51;0.60;;;0.60;;
3922;SDS011;1976;51.694;6.256;2024-01-15T01:32:17;0.60;;;0.60;;
3922;SDS011;1976;51.694;6.256;2024-01-15T01:34:43;0.60;;;0.60;;
3922;SDS011;1976;51.694;6.256;2024-01-15T01:37:09;0.60;;;0.60;;
3922;SDS011;1976;51.694;6.256;2024-01-15T01:39:38;0.60;;;0.60;;
3922;SDS011;1976;51.694;6.256;2024-01-15T01:42:04;0.60;;;0.60;;
3922;SDS011;1976;51.694;6.256;2024-01-15T01:44:29;0.70;;;0.70;;
3922;SDS011;1976;51.694;6.256;2024-01-15T01:46:55;0.80;;;0.80;;
3922;SDS011;1976;51.694;6.256;2024-01-15T01:49:22;0.70;;;0.70;;
3922;SDS011;1976;51.694;6.256;2024-01-15T01:51:48;0.60;;;0.60;;
3922;SDS011;1976;51.694;6.256;2024-01-15T01:54:14;4.73;;;3.13;;
3922;SDS011;1976;51.694;6.256;2024-01-15T01:56:40;0.60;;;0.60;;
3922;SDS011;1976;51.694;6.256;2024-01-15T01:59:07;0.60;;;0.60;;
3922;SDS011;1976;51.694;6.256;2024-01-15T02:01:34;0.60;;;0.60;;
3922;SDS011;1976;51.694;6.256;2024-01-15T02:04:00;0.60;;;0.60;;
3922;SDS011;1976;51.694;6.256;2024-01-15T02:06:26;0.60;;;0.60;;
3922;SDS011;1976;51.694;6.256;2024-01-15T02:08:52;0.60;;;0.60;;
3922;SDS011;1976;51.694;6.256;2024-01-15T02:11:18;0.60;;;0.60;;
3922;SDS011;1976;51.694;6.256;2024-01-15T02:13:43;0.60;;;0.60;;
3922;SDS011;1976;51.694;6.256;2024-01-15T02:16:09;0.60;;;0.60;;
3922;SDS011;1976;51.694;6.256;2024-01-15T02:18:41;0.60;;;0.60;;
3922;SDS011;1976;51.694;6.256;2024-01-15T02:21:08;0.60;;;0.60;;
3922;SDS011;1976;51.694;6.256;2024-01-15T02:23:34;0.60;;;0.60;;
3922;SDS011;1976;51.694;6.256;2024-01-15T02:25:59;0.60;;;0.60;;
3922;SDS011;1976;51.694;6.256;2024-01-15T02:28:26;0.60;;;0.60;;
3922;SDS011;1976;51.694;6.256;2024-01-15T02:30:51;0.60;;;0.60;;
3922;SDS011;1976;51.694;6.256;2024-01-15T02:33:17;1.10;;;1.10;;
3922;SDS011;1976;51.694;6.256;2024-01-15T02:35:43;0.60;;;0.60;;
3922;SDS011;1976;51.694;6.256;2024-01-15T02:38:08;0.60;;;0.60;;
3922;SDS011;1976;51.694;6.256;2024-01-15T02:40:34;0.60;;;0.60;;
3922;SDS011;1976;51.694;6.256;2024-01-15T02:43:00;0.60;;;0.60;;
3922;SDS011;1976;51.694;6.256;2024-01-15T02:45:26;0.60;;;0.60;;
3922;SDS011;1976;51.694;6.256;2024-01-15T02:47:52;0.60;;;0.60;;
3922;SDS011;1976;51.694;6.256;2024-01-15T02:50:17;0.60;;;0.60;;
3922;SDS011;1976;51.694;6.256;2024-01-15T02:52:43;0.60;;;0.60;;
3922;SDS011;1976;51.694;6.256;2024-01-15T02:55:09;0.60;;;0.60;;
3922;SDS011;1976;51.694;6.256;2024-01-15T02:57:34;0.60;;;0.60;;
3922;SDS011;1976;51.694;6.256;2024-01-15T03:00:00;0.60;;;0.60;;
3922;SDS011;1976;51.694;6.256;2024-01-15T03:02:26;0.60;;;0.60;;
3922;SDS011;1976;51.694;6.256;2024-01-15T03:04:51;0.60;;;0.60;;
3922;SDS011;1976;51.694;6.256;2024-01-15T03:07:17;0.60;;;0.60;;
3922;SDS011;1976;51.694;6.256;2024-01-15T03:09:43;0.60;;;0.60;;
3922;SDS011;1976;51.694;6.256;2024-01-15T03:12:08;0.60;;;0.60;;
3922;SDS011;1976;51.694;6.256;2024-01-15T03:14:35;0.60;;;0.60;;
3922;SDS011;1976;51.694;6.256;2024-01-15T03:17:00;0.60;;;0.60;;
3922;SDS011;1976;51.694;6.256;2024-01-15T03:19:26;0.60;;;0.60;;
3922;SDS011;1976;51.694;6.256;2024-01-15T03:21:52;0.60;;;0.60;;
3922;SDS011;1976;51.694;6.256;2024-01-15T03:24:18;0.60;;;0.60;;
3922;SDS011;1976;51.694;6.256;2024-01-15T03:26:43;0.70;;;0.70;;
3922;SDS011;1976;51.694;6.256;2024-01-15T03:29:09;0.63;;;0.63;;
3922;SDS011;1976;51.694;6.256;2024-01-15T03:31:35;0.60;;;0.60;;
3922;SDS011;1976;51.694;6.256;2024-01-15T03:34:00;0.60;;;0.60;;
3922;SDS011;1976;51.694;6.256;2024-01-15T03:36:26;0.60;;;0.60;;
3922;SDS011;1976;51.694;6.256;2024-01-15T03:38:51;0.60;;;0.60;;
3922;SDS011;1976;51.694;6.256;2024-01-15T03:41:17;0.60;;;0.60;;
3922;SDS011;1976;51.694;6.256;2024-01-15T03:43:42;0.60;;;0.60;;
3922;SDS011;1976;51.694;6.256;2024-01-15T03:46:08;0.60;;;0.60;;
3922;SDS011;1976;51.694;6.256;2024-01-15T03:48:33;0.60;;;0.60;;
3922;SDS011;1976;51.694;6.256;2024-01-15T03:50:59;0.60;;;0.60;;
3922;SDS011;1976;51.694;6.256;2024-01-15T03:53:25;0.60;;;0.60;;
3922;SDS011;1976;51.694;6.256;2024-01-15T03:55:51;0.60;;;0.60;;
3922;SDS011;1976;51.694;6.256;2024-01-15T03:58:17;0.60;;;0.60;;
3922;SDS011;1976;51.694;6.256;2024-01-15T04:00:43;0.60;;;0.60;;
3922;SDS011;1976;51.694;6.256;2024-01-15T04:03:08;0.60;;;0.60;;
3922;SDS011;1976;51.694;6.256;2024-01-15T04:05:34;0.60;;;0.60;;
3922;SDS011;1976;51.694;6.256;2024-01-15T04:08:00;0.77;;;0.77;;
3922;SDS011;1976;51.694;6.256;2024-01-15T04:10:26;0.60;;;0.60;;
3922;SDS011;1976;51.694;6.256;2024-01-15T04:12:51;0.60;;;0.60;;
3922;SDS011;1976;51.694;6.256;2024-01-15T04:15:17;0.60;;;0.60;;
3922;SDS011;1976;51.694;6.256;2024-01-15T04:17:42;0.60;;;0.60;;
3922;SDS011;1976;51.694;6.256;2024-01-15T04:20:08;0.60;;;0.60;;
3922;SDS011;1976;51.694;6.256;2024-01-15T04:22:35;0.60;;;0.60;;
3922;SDS011;1976;51.694;6.256;2024-01-15T04:25:01;0.60;;;0.60;;
3922;SDS011;1976;51.694;6.256;2024-01-15T04:27:27;0.57;;;0.57;;
3922;SDS011;1976;51.694;6.256;2024-01-15T04:29:52;0.60;;;0.60;;
3922;SDS011;1976;51.694;6.256;2024-01-15T04:32:18;0.60;;;0.60;;
3922;SDS011;1976;51.694;6.256;2024-01-15T04:34:44;0.60;;;0.60;;
3922;SDS011;1976;51.694;6.256;2024-01-15T04:37:10;0.60;;;0.60;;
3922;SDS011;1976;51.694;6.256;2024-01-15T04:39:35;0.60;;;0.60;;
3922;SDS011;1976;51.694;6.256;2024-01-15T04:42:01;0.60;;;0.60;;
3922;SDS011;1976;51.694;6.256;2024-01-15T04:44:27;0.60;;;0.60;;
3922;SDS011;1976;51.694;6.256;2024-01-15T04:46:53;0.60;;;0.60;;
3922;SDS011;1976;51.694;6.256;2024-01-15T04:49:19;0.60;;;0.60;;
3922;SDS011;1976;51.694;6.256;2024-01-15T04:51:44;0.60;;;0.60;;
3922;SDS011;1976;51.694;6.256;2024-01-15T04:54:10;0.60;;;0.60;;
3922;SDS011;1976;51.694;6.256;2024-01-15T04:56:36;0.60;;;0.60;;
3922;SDS011;1976;51.694;6.256;2024-01-15T04:59:02;0.60;;;0.60;;
3922;SDS011;1976;51.694;6.256;2024-01-15T05:01:31;0.60;;;0.60;;
3922;SDS011;1976;51.694;6.256;2024-01-15T05:03:57;0.60;;;0.60;;
3922;SDS011;1976;51.694;6.256;2024-01-15T05:06:23;0.60;;;0.60;;
3922;SDS011;1976;51.694;6.256;2024-01-15T05:08:48;0.60;;;0.60;;
3922;SDS011;1976;51.694;6.256;2024-01-15T05:11:14;0.60;;;0.60;;
3922;SDS011;1976;51.694;6.256;2024-01-15T05:13:39;0.60;;;0.60;;
3922;SDS011;1976;51.694;6.256;2024-01-15T05:16:05;0.60;;;0.60;;
3922;SDS011;1976;51.694;6.256;2024-01-15T05:18:31;0.67;;;0.67;;
3922;SDS011;1976;51.694;6.256;2024-01-15T05:20:57;0.60;;;0.60;;
3922;SDS011;1976;51.694;6.256;2024-01-15T05:23:22;0.60;;;0.60;;
3922;SDS011;1976;51.694;6.256;2024-01-15T05:25:48;0.60;;;0.60;;
3922;SDS011;1976;51.694;6.256;2024-01-15T05:28:14;0.60;;;0.60;;
3922;SDS011;1976;51.694;6.256;2024-01-15T05:30:39;0.60;;;0.60;;
3922;SDS011;1976;51.694;6.256;2024-01-15T05:33:05;0.60;;;0.60;;
3922;SDS011;1976;51.694;6.256;2024-01-15T05:35:32;0.60;;;0.60;;
3922;SDS011;1976;51.694;6.256;2024-01-15T05:37:58;0.60;;;0.60;;
3922;SDS011;1976;51.694;6.256;2024-01-15T05:40:23;0.60;;;0.60;;
3922;SDS011;1976;51.694;6.256;2024-01-15T05:42:49;0.60;;;0.60;;
3922;SDS011;1976;51.694;6.256;2024-01-15T05:45:15;0.63;;;0.63;;
3922;SDS011;1976;51.694;6.256;2024-01-15T05:47:41;0.60;;;0.60;;
3922;SDS011;1976;51.694;6.256;2024-01-15T05:50:06;0.60;;;0.60;;
3922;SDS011;1976;51.694;6.256;2024-01-15T05:52:32;0.60;;;0.60;;
3922;SDS011;1976;51.694;6.256;2024-01-15T05:54:57;0.70;;;0.70;;
3922;SDS011;1976;51.694;6.256;2024-01-15T05:57:23;0.60;;;0.60;;
3922;SDS011;1976;51.694;6.256;2024-01-15T05:59:49;0.60;;;0.60;;
3922;SDS011;1976;51.694;6.256;2024-01-15T06:02:14;0.60;;;0.60;;
3922;SDS011;1976;51.694;6.256;2024-01-15T06:04:40;0.60;;;0.60;;
3922;SDS011;1976;51.694;6.256;2024-01-15T06:07:05;0.60;;;0.60;;
3922;SDS011;1976;51.694;6.256;2024-01-15T06:09:31;0.60;;;0.60;;
3922;SDS011;1976;51.694;6.256;2024-01-15T06:11:57;0.60;;;0.60;;
3922;SDS011;1976;51.694;6.256;2024-01-15T06:14:22;0.60;;;0.60;;
3922;SDS011;1976;51.694;6.256;2024-01-15T06:16:48;0.60;;;0.60;;
3922;SDS011;1976;51.694;6.256;2024-01-15T06:19:14;0.60;;;0.60;;
3922;SDS011;1976;51.694;6.256;2024-01-15T06:21:39;0.80;;;0.80;;
3922;SDS011;1976;51.694;6.256;2024-01-15T06:24:05;0.60;;;0.60;;
3922;SDS011;1976;51.694;6.256;2024-01-15T06:26:31;0.70;;;0.70;;
3922;SDS011;1976;51.694;6.256;2024-01-15T06:28:56;0.80;;;0.80;;
3922;SDS011;1976;51.694;6.256;2024-01-15T06:31:22;0.60;;;0.60;;
3922;SDS011;1976;51.694;6.256;2024-01-15T06:33:48;0.60;;;0.60;;
3922;SDS011;1976;51.694;6.256;2024-01-15T06:36:14;0.60;;;0.60;;
3922;SDS011;1976;51.694;6.256;2024-01-15T06:38:41;0.60;;;0.60;;
3922;SDS011;1976;51.694;6.256;2024-01-15T06:41:09;0.60;;;0.60;;
3922;SDS011;1976;51.694;6.256;2024-01-15T06:43:34;0.70;;;0.70;;
3922;SDS011;1976;51.694;6.256;2024-01-15T06:46:00;0.60;;;0.60;;
3922;SDS011;1976;51.694;6.256;2024-01-15T06:48:26;0.60;;;0.60;;
3922;SDS011;1976;51.694;6.256;2024-01-15T06:50:51;0.60;;;0.60;;
3922;SDS011;1976;51.694;6.256;2024-01-15T06:53:17;0.60;;;0.60;;
3922;SDS011;1976;51.694;6.256;2024-01-15T06:55:42;0.60;;;0.60;;
3922;SDS011;1976;51.694;6.256;2024-01-15T06:58:08;0.60;;;0.60;;
3922;SDS011;1976;51.694;6.256;2024-01-15T07:00:34;0.60;;;0.60;;
3922;SDS011;1976;51.694;6.256;2024-01-15T07:02:59;0.60;;;0.60;;
3922;SDS011;1976;51.694;6.256;2024-01-15T07:05:25;0.60;;;0.60;;
3922;SDS011;1976;51.694;6.256;2024-01-15T07:07:51;0.60;;;0.60;;
3922;SDS011;1976;51.694;6.256;2024-01-15T07:10:17;0.60;;;0.60;;
3922;SDS011;1976;51.694;6.256;2024-01-15T07:12:42;0.50;;;0.50;;
3922;SDS011;1976;51.694;6.256;2024-01-15T07:15:08;0.60;;;0.60;;
3922;SDS011;1976;51.694;6.256;2024-01-15T07:17:34;0.60;;;0.60;;
3922;SDS011;1976;51.694;6.256;2024-01-15T07:20:00;0.60;;;0.60;;
3922;SDS011;1976;51.694;6.256;2024-01-15T07:22:26;2.80;;;2.70;;
3922;SDS011;1976;51.694;6.256;2024-01-15T07:24:52;0.60;;;0.60;;
3922;SDS011;1976;51.694;6.256;2024-01-15T07:27:17;0.60;;;0.60;;
3922;SDS011;1976;51.694;6.256;2024-01-15T07:29:43;0.60;;;0.60;;
3922;SDS011;1976;51.694;6.256;2024-01-15T07:32:08;0.60;;;0.60;;
3922;SDS011;1976;51.694;6.256;2024-01-15T07:34:34;0.60;;;0.60;;
3922;SDS011;1976;51.694;6.256;2024-01-15T07:37:00;0.60;;;0.60;;
3922;SDS011;1976;51.694;6.256;2024-01-15T07:39:26;0.60;;;0.60;;
3922;SDS011;1976;51.694;6.256;2024-01-15T07:41:53;0.60;;;0.60;;
3922;SDS011;1976;51.694;6.256;2024-01-15T07:44:19;0.60;;;0.60;;
3922;SDS011;1976;51.694;6.256;2024-01-15T07:46:45;0.60;;;0.60;;
3922;SDS011;1976;51.694;6.256;2024-01-15T07:49:11;0.60;;;0.60;;
3922;SDS011;1976;51.694;6.256;2024-01-15T07:51:37;0.60;;;0.60;;
3922;SDS011;1976;51.694;6.256;2024-01-15T07:54:05;2.83;;;2.63;;
3922;SDS011;1976;51.694;6.256;2024-01-15T07:56:31;6.23;;;3.17;;
3922;SDS011;1976;51.694;6.256;2024-01-15T07:58:56;3.97;;;2.60;;
3922;SDS011;1976;51.694;6.256;2024-01-15T08:01:22;2.07;;;1.97;;
3922;SDS011;1976;51.694;6.256;2024-01-15T08:03:48;5.17;;;2.40;;
3922;SDS011;1976;51.694;6.256;2024-01-15T08:06:14;5.03;;;2.47;;
3922;SDS011;1976;51.694;6.256;2024-01-15T08:08:39;2.13;;;1.97;;
3922;SDS011;1976;51.694;6.256;2024-01-15T08:11:05;1.53;;;1.43;;
3922;SDS011;1976;51.694;6.256;2024-01-15T08:13:31;5.53;;;1.90;;
3922;SDS011;1976;51.694;6.256;2024-01-15T08:15:56;1.13;;;1.03;;
3922;SDS011;1976;51.694;6.256;2024-01-15T08:18:22;1.33;;;1.23;;
3922;SDS011;1976;51.694;6.256;2024-01-15T08:20:48;1.83;;;1.73;;
3922;SDS011;1976;51.694;6.256;2024-01-15T08:23:15;10.17;;;2.00;;
3922;SDS011;1976;51.694;6.256;2024-01-15T08:25:40;2.07;;;1.70;;
3922;SDS011;1976;51.694;6.256;2024-01-15T08:28:06;1.07;;;1.00;;
3922;SDS011;1976;51.694;6.256;2024-01-15T08:30:33;0.60;;;0.60;;
3922;SDS011;1976;51.694;6.256;2024-01-15T08:32:59;0.60;;;0.60;;
3922;SDS011;1976;51.694;6.256;2024-01-15T08:35:25;0.60;;;0.60;;
3922;SDS011;1976;51.694;6.256;2024-01-15T08:37:53;0.60;;;0.60;;
3922;SDS011;1976;51.694;6.256;2024-01-15T08:40:20;0.60;;;0.60;;
3922;SDS011;1976;51.694;6.256;2024-01-15T08:42:45;0.60;;;0.60;;
3922;SDS011;1976;51.694;6.256;2024-01-15T08:45:11;0.60;;;0.60;;
3922;SDS011;1976;51.694;6.256;2024-01-15T08:47:37;0.67;;;0.67;;
3922;SDS011;1976;51.694;6.256;2024-01-15T08:50:03;0.60;;;0.60;;
3922;SDS011;1976;51.694;6.256;2024-01-15T08:52:29;0.60;;;0.60;;
3922;SDS011;1976;51.694;6.256;2024-01-15T08:54:56;0.60;;;0.60;;
3922;SDS011;1976;51.694;6.256;2024-01-15T08:57:22;0.60;;;0.60;;
3922;SDS011;1976;51.694;6.256;2024-01-15T08:59:47;0.60;;;0.60;;
3922;SDS011;1976;51.694;6.256;2024-01-15T09:02:13;0.60;;;0.60;;
3922;SDS011;1976;51.694;6.256;2024-01-15T09:04:39;0.60;;;0.60;;
3922;SDS011;1976;51.694;6.256;2024-01-15T09:07:04;0.50;;;0.50;;
3922;SDS011;1976;51.694;6.256;2024-01-15T09:09:30;0.60;;;0.60;;
3922;SDS011;1976;51.694;6.256;2024-01-15T09:11:56;0.60;;;0.60;;
3922;SDS011;1976;51.694;6.256;2024-01-15T09:14:21;0.60;;;0.60;;
3922;SDS011;1976;51.694;6.256;2024-01-15T09:16:49;0.60;;;0.60;;
3922;SDS011;1976;51.694;6.256;2024-01-15T09:19:16;0.60;;;0.60;;
3922;SDS011;1976;51.694;6.256;2024-01-15T09:21:42;0.60;;;0.60;;
3922;SDS011;1976;51.694;6.256;2024-01-15T09:24:07;0.53;;;0.53;;
3922;SDS011;1976;51.694;6.256;2024-01-15T09:26:33;0.60;;;0.60;;
3922;SDS011;1976;51.694;6.256;2024-01-15T09:28:58;0.60;;;0.60;;
3922;SDS011;1976;51.694;6.256;2024-01-15T09:31:24;0.53;;;0.53;;
3922;SDS011;1976;51.694;6.256;2024-01-15T09:33:49;0.50;;;0.50;;
3922;SDS011;1976;51.694;6.256;2024-01-15T09:36:21;0.60;;;0.60;;
3922;SDS011;1976;51.694;6.256;2024-01-15T09:38:47;0.60;;;0.60;;
3922;SDS011;1976;51.694;6.256;2024-01-15T09:41:13;0.60;;;0.60;;
3922;SDS011;1976;51.694;6.256;2024-01-15T09:43:40;0.60;;;0.60;;
3922;SDS011;1976;51.694;6.256;2024-01-15T09:46:05;0.60;;;0.60;;
3922;SDS011;1976;51.694;6.256;2024-01-15T09:48:31;0.60;;;0.60;;
3922;SDS011;1976;51.694;6.256;2024-01-15T09:50:59;0.60;;;0.60;;
3922;SDS011;1976;51.694;6.256;2024-01-15T09:53:26;0.60;;;0.60;;
3922;SDS011;1976;51.694;6.256;2024-01-15T09:55:52;0.60;;;0.60;;
3922;SDS011;1976;51.694;6.256;2024-01-15T09:58:18;0.50;;;0.50;;
3922;SDS011;1976;51.694;6.256;2024-01-15T10:00:44;0.60;;;0.60;;
3922;SDS011;1976;51.694;6.256;2024-01-15T10:03:09;0.60;;;0.60;;
3922;SDS011;1976;51.694;6.256;2024-01-15T10:05:36;0.60;;;0.60;;
3922;SDS011;1976;51.694;6.256;2024-01-15T10:08:02;0.70;;;0.70;;
3922;SDS011;1976;51.694;6.256;2024-01-15T10:10:29;0.60;;;0.60;;
3922;SDS011;1976;51.694;6.256;2024-01-15T10:12:56;0.60;;;0.60;;
3922;SDS011;1976;51.694;6.256;2024-01-15T10:15:23;0.67;;;0.67;;
3922;SDS011;1976;51.694;6.256;2024-01-15T10:17:51;0.60;;;0.60;;
3922;SDS011;1976;51.694;6.256;2024-01-15T10:20:16;0.60;;;0.60;;
3922;SDS011;1976;51.694;6.256;2024-01-15T10:22:42;0.60;;;0.60;;
3922;SDS011;1976;51.694;6.256;2024-01-15T10:25:12;0.60;;;0.60;;
3922;SDS011;1976;51.694;6.256;2024-01-15T10:27:38;0.60;;;0.60;;
3922;SDS011;1976;51.694;6.256;2024-01-15T10:30:06;0.60;;;0.60;;
3922;SDS011;1976;51.694;6.256;2024-01-15T10:32:32;0.60;;;0.60;;
3922;SDS011;1976;51.694;6.256;2024-01-15T10:34:58;0.60;;;0.60;;
3922;SDS011;1976;51.694;6.256;2024-01-15T10:37:24;0.60;;;0.60;;
3922;SDS011;1976;51.694;6.256;2024-01-15T10:39:50;0.60;;;0.60;;
3922;SDS011;1976;51.694;6.256;2024-01-15T10:42:16;0.60;;;0.60;;
3922;SDS011;1976;51.694;6.256;2024-01-15T10:44:43;0.60;;;0.60;;
3922;SDS011;1976;51.694;6.256;2024-01-15T10:47:09;0.60;;;0.60;;
3922;SDS011;1976;51.694;6.256;2024-01-15T10:49:36;0.60;;;0.60;;
3922;SDS011;1976;51.694;6.256;2024-01-15T10:52:02;0.60;;;0.60;;
3922;SDS011;1976;51.694;6.256;2024-01-15T10:54:28;0.60;;;0.60;;
3922;SDS011;1976;51.694;6.256;2024-01-15T10:56:55;0.60;;;0.60;;
3922;SDS011;1976;51.694;6.256;2024-01-15T10:59:21;0.60;;;0.60;;
3922;SDS011;1976;51.694;6.256;2024-01-15T11:01:52;0.60;;;0.60;;
3922;SDS011;1976;51.694;6.256;2024-01-15T11:04:19;0.60;;;0.60;;
3922;SDS011;1976;51.694;6.256;2024-01-15T11:06:47;0.60;;;0.60;;
3922;SDS011;1976;51.694;6.256;2024-01-15T11:09:15;0.60;;;0.60;;
3922;SDS011;1976;51.694;6.256;2024-01-15T11:11:45;0.60;;;0.60;;
3922;SDS011;1976;51.694;6.256;2024-01-15T11:17:00;0.60;;;0.60;;
3922;SDS011;1976;51.694;6.256;2024-01-15T11:19:25;0.60;;;0.60;;
3922;SDS011;1976;51.694;6.256;2024-01-15T11:21:59;0.60;;;0.60;;
3922;SDS011;1976;51.694;6.256;2024-01-15T11:24:38;0.60;;;0.60;;
3922;SDS011;1976;51.694;6.256;2024-01-15T11:27:05;0.60;;;0.60;;
3922;SDS011;1976;51.694;6.256;2024-01-15T11:29:32;0.60;;;0.60;;
3922;SDS011;1976;51.694;6.256;2024-01-15T11:32:05;0.60;;;0.60;;
3922;SDS011;1976;51.694;6.256;2024-01-15T11:34:50;0.60;;;0.60;;
3922;SDS011;1976;51.694;6.256;2024-01-15T11:37:17;0.70;;;0.70;;
3922;SDS011;1976;51.694;6.256;2024-01-15T11:39:43;0.60;;;0.60;;
3922;SDS011;1976;51.694;6.256;2024-01-15T11:42:09;0.70;;;0.70;;
3922;SDS011;1976;51.694;6.256;2024-01-15T11:44:36;0.70;;;0.70;;
3922;SDS011;1976;51.694;6.256;2024-01-15T11:47:03;0.60;;;0.60;;
3922;SDS011;1976;51.694;6.256;2024-01-15T11:52:31;0.60;;;0.60;;
3922;SDS011;1976;51.694;6.256;2024-01-15T11:55:11;0.80;;;0.80;;
3922;SDS011;1976;51.694;6.256;2024-01-15T11:57:48;0.60;;;0.60;;
3922;SDS011;1976;51.694;6.256;2024-01-15T12:00:16;0.60;;;0.60;;
3922;SDS011;1976;51.694;6.256;2024-01-15T12:02:44;0.60;;;0.60;;
3922;SDS011;1976;51.694;6.256;2024-01-15T12:05:11;0.70;;;0.70;;
3922;SDS011;1976;51.694;6.256;2024-01-15T12:07:39;1.63;;;1.37;;
3922;SDS011;1976;51.694;6.256;2024-01-15T12:10:12;0.60;;;0.60;;
3922;SDS011;1976;51.694;6.256;2024-01-15T12:15:21;0.70;;;0.70;;
3922;SDS011;1976;51.694;6.256;2024-01-15T12:17:47;0.70;;;0.70;;
3922;SDS011;1976;51.694;6.256;2024-01-15T12:20:13;0.60;;;0.60;;
3922;SDS011;1976;51.694;6.256;2024-01-15T12:22:40;0.60;;;0.60;;
3922;SDS011;1976;51.694;6.256;2024-01-15T12:25:06;0.60;;;0.60;;
3922;SDS011;1976;51.694;6.256;2024-01-15T12:27:32;0.60;;;0.60;;
3922;SDS011;1976;51.694;6.256;2024-01-15T12:29:58;0.60;;;0.60;;
3922;SDS011;1976;51.694;6.256;2024-01-15T12:32:24;0.60;;;0.60;;
3922;SDS011;1976;51.694;6.256;2024-01-15T12:34:50;0.60;;;0.60;;
3922;SDS011;1976;51.694;6.256;2024-01-15T12:37:18;0.70;;;0.70;;
3922;SDS011;1976;51.694;6.256;2024-01-15T12:39:44;0.60;;;0.60;;
3922;SDS011;1976;51.694;6.256;2024-01-15T12:42:10;0.60;;;0.60;;
3922;SDS011;1976;51.694;6.256;2024-01-15T12:44:36;0.60;;;0.60;;
3922;SDS011;1976;51.694;6.256;2024-01-15T12:47:04;0.60;;;0.60;;
3922;SDS011;1976;51.694;6.256;2024-01-15T12:49:30;0.60;;;0.60;;
3922;SDS011;1976;51.694;6.256;2024-01-15T12:51:56;0.60;;;0.60;;
3922;SDS011;1976;51.694;6.256;2024-01-15T12:54:23;0.60;;;0.60;;
3922;SDS011;1976;51.694;6.256;2024-01-15T12:56:49;0.60;;;0.60;;
3922;SDS011;1976;51.694;6.256;2024-01-15T12:59:15;0.60;;;0.60;;
3922;SDS011;1976;51.694;6.256;2024-01-15T13:01:41;0.60;;;0.60;;
3922;SDS011;1976;51.694;6.256;2024-01-15T13:04:07;0.60;;;0.60;;
3922;SDS011;1976;51.694;6.256;2024-01-15T13:06:33;0.87;;;0.83;;
3922;SDS011;1976;51.694;6.256;2024-01-15T13:08:59;0.60;;;0.60;;
3922;SDS011;1976;51.694;6.256;2024-01-15T13:11:25;0.60;;;0.60;;
3922;SDS011;1976;51.694;6.256;2024-01-15T13:13:52;0.60;;;0.60;;
3922;SDS011;1976;51.694;6.256;2024-01-15T13:16:17;0.60;;;0.60;;
3922;SDS011;1976;51.694;6.256;2024-01-15T13:18:44;0.60;;;0.60;;
3922;SDS011;1976;51.694;6.256;2024-01-15T13:21:10;0.60;;;0.60;;
3922;SDS011;1976;51.694;6.256;2024-01-15T13:23:37;0.60;;;0.60;;
3922;SDS011;1976;51.694;6.256;2024-01-15T13:26:03;0.60;;;0.60;;
3922;SDS011;1976;51.694;6.256;2024-01-15T13:28:30;0.60;;;0.60;;
3922;SDS011;1976;51.694;6.256;2024-01-15T13:30:55;0.60;;;0.60;;
3922;SDS011;1976;51.694;6.256;2024-01-15T13:33:21;0.60;;;0.60;;
3922;SDS011;1976;51.694;6.256;2024-01-15T13:35:47;2.10;;;1.73;;
3922;SDS011;1976;51.694;6.256;2024-01-15T13:38:15;1.93;;;1.83;;
3922;SDS011;1976;51.694;6.256;2024-01-15T13:40:41;0.60;;;0.60;;
3922;SDS011;1976;51.694;6.256;2024-01-15T13:43:06;0.60;;;0.60;;
3922;SDS011;1976;51.694;6.256;2024-01-15T13:45:33;0.60;;;0.60;;
3922;SDS011;1976;51.694;6.256;2024-01-15T13:48:00;0.60;;;0.60;;
3922;SDS011;1976;51.694;6.256;2024-01-15T13:50:26;0.60;;;0.60;;
3922;SDS011;1976;51.694;6.256;2024-01-15T13:52:52;0.60;;;0.60;;
3922;SDS011;1976;51.694;6.256;2024-01-15T13:55:18;0.77;;;0.77;;
3922;SDS011;1976;51.694;6.256;2024-01-15T13:57:43;0.60;;;0.60;;
3922;SDS011;1976;51.694;6.256;2024-01-15T14:00:09;0.60;;;0.60;;
3922;SDS011;1976;51.694;6.256;2024-01-15T14:02:37;0.60;;;0.60;;
3922;SDS011;1976;51.694;6.256;2024-01-15T14:05:02;0.60;;;0.60;;
3922;SDS011;1976;51.694;6.256;2024-01-15T14:07:28;0.60;;;0.60;;
3922;SDS011;1976;51.694;6.256;2024-01-15T14:09:54;0.60;;;0.60;;
3922;SDS011;1976;51.694;6.256;2024-01-15T14:12:19;0.70;;;0.70;;
3922;SDS011;1976;51.694;6.256;2024-01-15T14:14:45;0.60;;;0.60;;
3922;SDS011;1976;51.694;6.256;2024-01-15T14:17:10;0.60;;;0.60;;
3922;SDS011;1976;51.694;6.256;2024-01-15T14:19:36;0.60;;;0.60;;
3922;SDS011;1976;51.694;6.256;2024-01-15T14:22:01;0.60;;;0.60;;
3922;SDS011;1976;51.694;6.256;2024-01-15T14:24:28;0.60;;;0.60;;
3922;SDS011;1976;51.694;6.256;2024-01-15T14:26:53;0.60;;;0.60;;
3922;SDS011;1976;51.694;6.256;2024-01-15T14:29:19;0.60;;;0.60;;
3922;SDS011;1976;51.694;6.256;2024-01-15T14:31:47;0.60;;;0.60;;
3922;SDS011;1976;51.694;6.256;2024-01-15T14:34:12;0.60;;;0.60;;
3922;SDS011;1976;51.694;6.256;2024-01-15T14:36:38;0.60;;;0.60;;
3922;SDS011;1976;51.694;6.256;2024-01-15T14:39:04;0.60;;;0.60;;
3922;SDS011;1976;51.694;6.256;2024-01-15T14:41:29;0.60;;;0.60;;
3922;SDS011;1976;51.694;6.256;2024-01-15T14:43:55;0.60;;;0.60;;
3922;SDS011;1976;51.694;6.256;2024-01-15T14:46:22;0.67;;;0.67;;
3922;SDS011;1976;51.694;6.256;2024-01-15T14:48:47;0.60;;;0.60;;
3922;SDS011;1976;51.694;6.256;2024-01-15T14:51:13;0.60;;;0.60;;
3922;SDS011;1976;51.694;6.256;2024-01-15T14:53:39;0.60;;;0.60;;
3922;SDS011;1976;51.694;6.256;2024-01-15T14:56:05;0.60;;;0.60;;
3922;SDS011;1976;51.694;6.256;2024-01-15T14:58:30;0.60;;;0.60;;
3922;SDS011;1976;51.694;6.256;2024-01-15T15:00:56;0.60;;;0.60;;
3922;SDS011;1976;51.694;6.256;2024-01-15T15:03:22;0.60;;;0.60;;
3922;SDS011;1976;51.694;6.256;2024-01-15T15:05:47;0.70;;;0.70;;
3922;SDS011;1976;51.694;6.256;2024-01-15T15:08:13;0.60;;;0.60;;
3922;SDS011;1976;51.694;6.256;2024-01-15T15:10:39;0.60;;;0.60;;
3922;SDS011;1976;51.694;6.256;2024-01-15T15:13:05;0.60;;;0.60;;
3922;SDS011;1976;51.694;6.256;2024-01-15T15:15:31;0.60;;;0.60;;
3922;SDS011;1976;51.694;6.256;2024-01-15T15:17:57;0.60;;;0.60;;